sensor_id;sensor_type;location;lat;lon;timestamp;P1;durP1;ratioP1;P2;durP2;ratioP2
54123;SDS011;55741;53.252;5.788;2023-07-31T00:00:50;10.73;;;2.88;;
54123;SDS011;55741;53.252;5.788;2023-07-31T00:03:16;10.00;;;3.17;;
54123;SDS011;55741;53.252;5.788;2023-07-31T00:05:42;9.13;;;2.70;;
54123;SDS011;55741;53.252;5.788;2023-07-31T00:08:09;6.93;;;2.50;;
54123;SDS011;55741;53.252;5.788;2023-07-31T00:10:35;8.77;;;2.90;;
54123;SDS011;55741;53.252;5.788;2023-07-31T00:13:01;12.52;;;3.00;;
54123;SDS011;55741;53.252;5.788;2023-07-31T00:15:26;13.32;;;3.20;;
54123;SDS011;55741;53.252;5.788;2023-07-31T00:17:52;12.07;;;2.90;;
54123;SDS011;55741;53.252;5.788;2023-07-31T00:20:18;8.18;;;2.50;;
54123;SDS011;55741;53.252;5.788;2023-07-31T00:22:44;15.00;;;2.90;;
54123;SDS011;55741;53.252;5.788;2023-07-31T00:25:10;13.00;;;2.50;;
54123;SDS011;55741;53.252;5.788;2023-07-31T00:27:35;10.13;;;2.72;;
54123;SDS011;55741;53.252;5.788;2023-07-31T00:30:02;9.30;;;2.47;;
54123;SDS011;55741;53.252;5.788;2023-07-31T00:32:28;9.13;;;2.70;;
54123;SDS011;55741;53.252;5.788;2023-07-31T00:34:54;20.38;;;3.85;;
54123;SDS011;55741;53.252;5.788;2023-07-31T00:37:20;13.35;;;2.80;;
54123;SDS011;55741;53.252;5.788;2023-07-31T00:39:45;9.07;;;2.78;;
54123;SDS011;55741;53.252;5.788;2023-07-31T00:42:13;8.80;;;2.38;;
54123;SDS011;55741;53.252;5.788;2023-07-31T00:44:39;15.32;;;3.13;;
54123;SDS011;55741;53.252;5.788;2023-07-31T00:47:04;11.52;;;2.45;;
54123;SDS011;55741;53.252;5.788;2023-07-31T00:49:30;9.88;;;2.70;;
54123;SDS011;55741;53.252;5.788;2023-07-31T00:51:56;16.10;;;2.65;;
54123;SDS011;55741;53.252;5.788;2023-07-31T00:54:23;11.50;;;2.60;;
54123;SDS011;55741;53.252;5.788;2023-07-31T00:56:49;12.70;;;2.75;;
54123;SDS011;55741;53.252;5.788;2023-07-31T00:59:18;9.73;;;2.55;;
54123;SDS011;55741;53.252;5.788;2023-07-31T01:01:44;10.60;;;2.50;;
54123;SDS011;55741;53.252;5.788;2023-07-31T01:04:10;10.75;;;3.28;;
54123;SDS011;55741;53.252;5.788;2023-07-31T01:12:04;9.68;;;2.78;;
54123;SDS011;55741;53.252;5.788;2023-07-31T01:14:33;11.63;;;3.45;;
54123;SDS011;55741;53.252;5.788;2023-07-31T01:17:00;10.23;;;2.78;;
54123;SDS011;55741;53.252;5.788;2023-07-31T01:19:26;10.40;;;2.95;;
54123;SDS011;55741;53.252;5.788;2023-07-31T01:27:30;12.02;;;2.90;;
54123;SDS011;55741;53.252;5.788;2023-07-31T01:30:08;7.35;;;2.25;;
54123;SDS011;55741;53.252;5.788;2023-07-31T01:32:40;11.70;;;2.55;;
54123;SDS011;55741;53.252;5.788;2023-07-31T01:35:07;8.40;;;2.75;;
54123;SDS011;55741;53.252;5.788;2023-07-31T01:37:34;16.55;;;3.03;;
54123;SDS011;55741;53.252;5.788;2023-07-31T01:40:00;12.00;;;3.78;;
54123;SDS011;55741;53.252;5.788;2023-07-31T01:42:27;10.82;;;2.90;;
54123;SDS011;55741;53.252;5.788;2023-07-31T01:44:53;11.70;;;2.75;;
54123;SDS011;55741;53.252;5.788;2023-07-31T01:47:19;13.38;;;3.38;;
54123;SDS011;55741;53.252;5.788;2023-07-31T01:49:45;11.50;;;3.53;;
54123;SDS011;55741;53.252;5.788;2023-07-31T01:52:10;12.45;;;3.40;;
54123;SDS011;55741;53.252;5.788;2023-07-31T01:54:36;8.43;;;2.67;;
54123;SDS011;55741;53.252;5.788;2023-07-31T01:57:02;14.38;;;3.38;;
54123;SDS011;55741;53.252;5.788;2023-07-31T01:59:28;10.60;;;3.00;;
54123;SDS011;55741;53.252;5.788;2023-07-31T02:01:54;8.10;;;2.55;;
54123;SDS011;55741;53.252;5.788;2023-07-31T02:04:20;8.18;;;2.60;;
54123;SDS011;55741;53.252;5.788;2023-07-31T02:06:46;10.05;;;2.83;;
54123;SDS011;55741;53.252;5.788;2023-07-31T02:09:11;13.68;;;2.83;;
54123;SDS011;55741;53.252;5.788;2023-07-31T02:11:37;13.25;;;3.17;;
54123;SDS011;55741;53.252;5.788;2023-07-31T02:14:03;12.95;;;3.40;;
54123;SDS011;55741;53.252;5.788;2023-07-31T02:16:29;8.90;;;2.83;;
54123;SDS011;55741;53.252;5.788;2023-07-31T02:18:54;12.70;;;3.33;;
54123;SDS011;55741;53.252;5.788;2023-07-31T02:21:20;12.48;;;3.28;;
54123;SDS011;55741;53.252;5.788;2023-07-31T02:23:46;13.55;;;2.70;;
54123;SDS011;55741;53.252;5.788;2023-07-31T02:26:12;7.88;;;2.60;;
54123;SDS011;55741;53.252;5.788;2023-07-31T02:28:38;8.40;;;2.70;;
54123;SDS011;55741;53.252;5.788;2023-07-31T02:31:03;9.73;;;2.80;;
54123;SDS011;55741;53.252;5.788;2023-07-31T02:33:29;10.88;;;3.38;;
54123;SDS011;55741;53.252;5.788;2023-07-31T02:35:55;11.13;;;2.70;;
54123;SDS011;55741;53.252;5.788;2023-07-31T02:38:21;8.52;;;2.45;;
54123;SDS011;55741;53.252;5.788;2023-07-31T02:40:47;12.35;;;3.00;;
54123;SDS011;55741;53.252;5.788;2023-07-31T02:43:15;9.98;;;3.10;;
54123;SDS011;55741;53.252;5.788;2023-07-31T02:45:40;10.48;;;3.13;;
54123;SDS011;55741;53.252;5.788;2023-07-31T02:48:06;8.05;;;3.08;;
54123;SDS011;55741;53.252;5.788;2023-07-31T02:50:32;13.93;;;3.80;;
54123;SDS011;55741;53.252;5.788;2023-07-31T02:52:58;8.93;;;3.13;;
54123;SDS011;55741;53.252;5.788;2023-07-31T02:55:24;6.75;;;3.22;;
54123;SDS011;55741;53.252;5.788;2023-07-31T02:57:50;6.93;;;2.80;;
54123;SDS011;55741;53.252;5.788;2023-07-31T03:00:17;10.82;;;3.42;;
54123;SDS011;55741;53.252;5.788;2023-07-31T03:02:43;9.93;;;3.60;;
54123;SDS011;55741;53.252;5.788;2023-07-31T03:05:09;10.85;;;3.53;;
54123;SDS011;55741;53.252;5.788;2023-07-31T03:07:55;8.55;;;3.50;;
54123;SDS011;55741;53.252;5.788;2023-07-31T03:10:20;11.90;;;3.10;;
54123;SDS011;55741;53.252;5.788;2023-07-31T03:12:47;10.70;;;3.05;;
54123;SDS011;55741;53.252;5.788;2023-07-31T03:15:13;9.35;;;3.00;;
54123;SDS011;55741;53.252;5.788;2023-07-31T03:17:39;10.70;;;3.42;;
54123;SDS011;55741;53.252;5.788;2023-07-31T03:20:05;7.72;;;3.30;;
54123;SDS011;55741;53.252;5.788;2023-07-31T03:22:31;6.45;;;2.65;;
54123;SDS011;55741;53.252;5.788;2023-07-31T03:24:57;6.38;;;2.65;;
54123;SDS011;55741;53.252;5.788;2023-07-31T03:27:22;6.72;;;2.72;;
54123;SDS011;55741;53.252;5.788;2023-07-31T03:29:48;3.92;;;1.95;;
54123;SDS011;55741;53.252;5.788;2023-07-31T03:32:16;6.43;;;1.60;;
54123;SDS011;55741;53.252;5.788;2023-07-31T03:34:42;4.85;;;1.70;;
54123;SDS011;55741;53.252;5.788;2023-07-31T03:37:08;3.40;;;1.23;;
54123;SDS011;55741;53.252;5.788;2023-07-31T03:39:34;4.05;;;1.15;;
54123;SDS011;55741;53.252;5.788;2023-07-31T03:42:00;2.97;;;1.27;;
54123;SDS011;55741;53.252;5.788;2023-07-31T03:44:28;3.25;;;1.23;;
54123;SDS011;55741;53.252;5.788;2023-07-31T03:46:53;5.88;;;1.58;;
54123;SDS011;55741;53.252;5.788;2023-07-31T03:49:19;2.47;;;1.05;;
54123;SDS011;55741;53.252;5.788;2023-07-31T03:51:45;3.10;;;1.30;;
54123;SDS011;55741;53.252;5.788;2023-07-31T03:54:11;4.35;;;1.20;;
54123;SDS011;55741;53.252;5.788;2023-07-31T03:56:38;5.40;;;1.27;;
54123;SDS011;55741;53.252;5.788;2023-07-31T03:59:04;2.53;;;1.20;;
54123;SDS011;55741;53.252;5.788;2023-07-31T04:01:30;5.45;;;1.50;;
54123;SDS011;55741;53.252;5.788;2023-07-31T04:03:55;2.92;;;1.10;;
54123;SDS011;55741;53.252;5.788;2023-07-31T04:06:21;2.25;;;1.10;;
54123;SDS011;55741;53.252;5.788;2023-07-31T04:08:47;2.55;;;1.20;;
54123;SDS011;55741;53.252;5.788;2023-07-31T04:11:13;1.85;;;1.17;;
54123;SDS011;55741;53.252;5.788;2023-07-31T04:13:39;3.90;;;1.38;;
54123;SDS011;55741;53.252;5.788;2023-07-31T04:16:05;2.97;;;1.80;;
54123;SDS011;55741;53.252;5.788;2023-07-31T04:18:30;7.70;;;3.00;;
54123;SDS011;55741;53.252;5.788;2023-07-31T04:20:57;5.85;;;2.50;;
54123;SDS011;55741;53.252;5.788;2023-07-31T04:23:24;12.43;;;3.33;;
54123;SDS011;55741;53.252;5.788;2023-07-31T04:25:50;12.43;;;4.80;;
54123;SDS011;55741;53.252;5.788;2023-07-31T04:28:16;15.90;;;5.32;;
54123;SDS011;55741;53.252;5.788;2023-07-31T04:30:42;14.98;;;6.47;;
54123;SDS011;55741;53.252;5.788;2023-07-31T04:33:08;22.60;;;6.32;;
54123;SDS011;55741;53.252;5.788;2023-07-31T04:35:34;18.02;;;6.28;;
54123;SDS011;55741;53.252;5.788;2023-07-31T04:38:00;28.65;;;6.45;;
54123;SDS011;55741;53.252;5.788;2023-07-31T04:40:26;18.63;;;6.28;;
54123;SDS011;55741;53.252;5.788;2023-07-31T04:42:52;15.57;;;5.88;;
54123;SDS011;55741;53.252;5.788;2023-07-31T04:45:19;19.33;;;6.55;;
54123;SDS011;55741;53.252;5.788;2023-07-31T04:47:45;18.42;;;6.63;;
54123;SDS011;55741;53.252;5.788;2023-07-31T04:50:11;18.17;;;7.07;;
54123;SDS011;55741;53.252;5.788;2023-07-31T04:52:36;21.85;;;6.82;;
54123;SDS011;55741;53.252;5.788;2023-07-31T04:55:02;13.40;;;5.85;;
54123;SDS011;55741;53.252;5.788;2023-07-31T04:57:28;16.95;;;6.57;;
54123;SDS011;55741;53.252;5.788;2023-07-31T04:59:54;17.88;;;5.75;;
54123;SDS011;55741;53.252;5.788;2023-07-31T05:02:20;16.80;;;6.65;;
54123;SDS011;55741;53.252;5.788;2023-07-31T05:04:46;20.20;;;5.90;;
54123;SDS011;55741;53.252;5.788;2023-07-31T05:07:12;16.65;;;5.82;;
54123;SDS011;55741;53.252;5.788;2023-07-31T05:09:37;15.77;;;5.80;;
54123;SDS011;55741;53.252;5.788;2023-07-31T05:12:04;17.52;;;6.80;;
54123;SDS011;55741;53.252;5.788;2023-07-31T05:14:31;19.17;;;6.20;;
54123;SDS011;55741;53.252;5.788;2023-07-31T05:16:56;24.83;;;6.90;;
54123;SDS011;55741;53.252;5.788;2023-07-31T05:19:22;23.35;;;6.45;;
54123;SDS011;55741;53.252;5.788;2023-07-31T05:21:48;22.60;;;7.35;;
54123;SDS011;55741;53.252;5.788;2023-07-31T05:24:14;21.77;;;6.75;;
54123;SDS011;55741;53.252;5.788;2023-07-31T05:26:39;24.90;;;7.15;;
54123;SDS011;55741;53.252;5.788;2023-07-31T05:29:05;22.98;;;8.05;;
54123;SDS011;55741;53.252;5.788;2023-07-31T05:31:31;24.80;;;8.20;;
54123;SDS011;55741;53.252;5.788;2023-07-31T05:33:57;25.42;;;8.02;;
54123;SDS011;55741;53.252;5.788;2023-07-31T05:36:23;24.25;;;8.02;;
54123;SDS011;55741;53.252;5.788;2023-07-31T05:38:49;32.10;;;8.23;;
54123;SDS011;55741;53.252;5.788;2023-07-31T05:41:15;19.98;;;7.13;;
54123;SDS011;55741;53.252;5.788;2023-07-31T05:43:41;21.55;;;7.20;;
54123;SDS011;55741;53.252;5.788;2023-07-31T05:46:09;25.25;;;7.20;;
54123;SDS011;55741;53.252;5.788;2023-07-31T05:48:37;23.02;;;8.25;;
54123;SDS011;55741;53.252;5.788;2023-07-31T05:51:03;24.98;;;6.70;;
54123;SDS011;55741;53.252;5.788;2023-07-31T05:53:28;24.83;;;6.68;;
54123;SDS011;55741;53.252;5.788;2023-07-31T05:55:54;24.35;;;6.15;;
54123;SDS011;55741;53.252;5.788;2023-07-31T05:58:21;22.90;;;7.05;;
54123;SDS011;55741;53.252;5.788;2023-07-31T06:00:47;23.38;;;6.82;;
54123;SDS011;55741;53.252;5.788;2023-07-31T06:03:12;20.25;;;6.38;;
54123;SDS011;55741;53.252;5.788;2023-07-31T06:05:38;18.73;;;6.25;;
54123;SDS011;55741;53.252;5.788;2023-07-31T06:08:04;24.60;;;6.65;;
54123;SDS011;55741;53.252;5.788;2023-07-31T06:10:30;19.40;;;6.03;;
54123;SDS011;55741;53.252;5.788;2023-07-31T06:12:56;22.65;;;6.05;;
54123;SDS011;55741;53.252;5.788;2023-07-31T06:15:22;19.92;;;5.90;;
54123;SDS011;55741;53.252;5.788;2023-07-31T06:17:48;23.25;;;6.32;;
54123;SDS011;55741;53.252;5.788;2023-07-31T06:20:14;18.45;;;5.78;;
54123;SDS011;55741;53.252;5.788;2023-07-31T06:22:40;16.55;;;5.35;;
54123;SDS011;55741;53.252;5.788;2023-07-31T06:25:05;15.77;;;5.18;;
54123;SDS011;55741;53.252;5.788;2023-07-31T06:27:31;10.73;;;3.95;;
54123;SDS011;55741;53.252;5.788;2023-07-31T06:29:57;12.15;;;4.45;;
54123;SDS011;55741;53.252;5.788;2023-07-31T06:32:23;17.10;;;5.15;;
54123;SDS011;55741;53.252;5.788;2023-07-31T06:34:49;13.98;;;5.05;;
54123;SDS011;55741;53.252;5.788;2023-07-31T06:37:15;13.82;;;5.03;;
54123;SDS011;55741;53.252;5.788;2023-07-31T06:39:41;14.18;;;5.13;;
54123;SDS011;55741;53.252;5.788;2023-07-31T06:42:07;20.40;;;5.78;;
54123;SDS011;55741;53.252;5.788;2023-07-31T06:44:33;17.13;;;5.30;;
54123;SDS011;55741;53.252;5.788;2023-07-31T06:47:00;13.68;;;4.75;;
54123;SDS011;55741;53.252;5.788;2023-07-31T06:49:26;18.27;;;6.53;;
54123;SDS011;55741;53.252;5.788;2023-07-31T06:51:52;15.38;;;6.05;;
54123;SDS011;55741;53.252;5.788;2023-07-31T06:54:18;15.20;;;5.72;;
54123;SDS011;55741;53.252;5.788;2023-07-31T06:56:44;14.57;;;5.53;;
54123;SDS011;55741;53.252;5.788;2023-07-31T06:59:09;12.73;;;4.68;;
54123;SDS011;55741;53.252;5.788;2023-07-31T07:01:35;11.10;;;4.88;;
54123;SDS011;55741;53.252;5.788;2023-07-31T07:04:01;14.82;;;4.90;;
54123;SDS011;55741;53.252;5.788;2023-07-31T07:06:27;15.23;;;4.88;;
54123;SDS011;55741;53.252;5.788;2023-07-31T07:08:53;13.23;;;4.55;;
54123;SDS011;55741;53.252;5.788;2023-07-31T07:11:18;12.00;;;4.28;;
54123;SDS011;55741;53.252;5.788;2023-07-31T07:13:44;15.82;;;4.78;;
54123;SDS011;55741;53.252;5.788;2023-07-31T07:16:10;12.23;;;4.28;;
54123;SDS011;55741;53.252;5.788;2023-07-31T07:18:36;11.88;;;4.60;;
54123;SDS011;55741;53.252;5.788;2023-07-31T07:21:02;12.13;;;3.95;;
54123;SDS011;55741;53.252;5.788;2023-07-31T07:23:28;8.80;;;4.00;;
54123;SDS011;55741;53.252;5.788;2023-07-31T07:25:54;9.85;;;3.50;;
54123;SDS011;55741;53.252;5.788;2023-07-31T07:28:19;8.32;;;3.33;;
54123;SDS011;55741;53.252;5.788;2023-07-31T07:30:50;6.75;;;2.60;;
54123;SDS011;55741;53.252;5.788;2023-07-31T07:33:17;4.70;;;2.42;;
54123;SDS011;55741;53.252;5.788;2023-07-31T07:35:43;5.55;;;2.30;;
54123;SDS011;55741;53.252;5.788;2023-07-31T07:38:09;4.80;;;2.13;;
54123;SDS011;55741;53.252;5.788;2023-07-31T07:40:38;4.82;;;2.40;;
54123;SDS011;55741;53.252;5.788;2023-07-31T07:43:05;7.25;;;2.60;;
54123;SDS011;55741;53.252;5.788;2023-07-31T07:45:30;4.68;;;2.00;;
54123;SDS011;55741;53.252;5.788;2023-07-31T07:47:58;3.55;;;1.80;;
54123;SDS011;55741;53.252;5.788;2023-07-31T07:50:24;4.30;;;1.60;;
54123;SDS011;55741;53.252;5.788;2023-07-31T07:52:50;3.78;;;1.52;;
54123;SDS011;55741;53.252;5.788;2023-07-31T07:55:16;3.17;;;1.30;;
54123;SDS011;55741;53.252;5.788;2023-07-31T07:57:42;5.80;;;1.90;;
54123;SDS011;55741;53.252;5.788;2023-07-31T08:00:09;4.45;;;1.50;;
54123;SDS011;55741;53.252;5.788;2023-07-31T08:02:35;7.55;;;1.77;;
54123;SDS011;55741;53.252;5.788;2023-07-31T08:05:01;4.10;;;1.70;;
54123;SDS011;55741;53.252;5.788;2023-07-31T08:07:27;6.60;;;1.80;;
54123;SDS011;55741;53.252;5.788;2023-07-31T08:09:53;7.35;;;1.98;;
54123;SDS011;55741;53.252;5.788;2023-07-31T08:12:19;6.25;;;1.75;;
54123;SDS011;55741;53.252;5.788;2023-07-31T08:14:44;6.30;;;1.70;;
54123;SDS011;55741;53.252;5.788;2023-07-31T08:17:10;6.20;;;1.48;;
54123;SDS011;55741;53.252;5.788;2023-07-31T08:19:36;5.00;;;1.67;;
54123;SDS011;55741;53.252;5.788;2023-07-31T08:22:02;5.20;;;2.10;;
54123;SDS011;55741;53.252;5.788;2023-07-31T08:24:28;5.63;;;2.30;;
54123;SDS011;55741;53.252;5.788;2023-07-31T08:26:54;7.03;;;2.03;;
54123;SDS011;55741;53.252;5.788;2023-07-31T08:29:20;6.18;;;1.55;;
54123;SDS011;55741;53.252;5.788;2023-07-31T08:31:45;5.70;;;1.50;;
54123;SDS011;55741;53.252;5.788;2023-07-31T08:34:11;4.57;;;1.65;;
54123;SDS011;55741;53.252;5.788;2023-07-31T08:36:37;5.10;;;1.50;;
54123;SDS011;55741;53.252;5.788;2023-07-31T08:39:03;8.00;;;2.03;;
54123;SDS011;55741;53.252;5.788;2023-07-31T08:41:29;6.28;;;1.98;;
54123;SDS011;55741;53.252;5.788;2023-07-31T08:43:54;7.35;;;2.00;;
54123;SDS011;55741;53.252;5.788;2023-07-31T08:46:21;6.57;;;1.70;;
54123;SDS011;55741;53.252;5.788;2023-07-31T08:48:50;5.93;;;1.80;;
54123;SDS011;55741;53.252;5.788;2023-07-31T08:51:18;6.07;;;2.50;;
54123;SDS011;55741;53.252;5.788;2023-07-31T08:53:44;6.90;;;2.75;;
54123;SDS011;55741;53.252;5.788;2023-07-31T08:56:10;6.75;;;2.40;;
54123;SDS011;55741;53.252;5.788;2023-07-31T08:58:38;6.38;;;1.90;;
54123;SDS011;55741;53.252;5.788;2023-07-31T09:01:04;6.10;;;2.50;;
54123;SDS011;55741;53.252;5.788;2023-07-31T09:03:33;6.25;;;2.13;;
54123;SDS011;55741;53.252;5.788;2023-07-31T09:06:02;8.13;;;2.50;;
54123;SDS011;55741;53.252;5.788;2023-07-31T09:08:31;5.78;;;2.22;;
54123;SDS011;55741;53.252;5.788;2023-07-31T09:11:00;7.22;;;2.30;;
54123;SDS011;55741;53.252;5.788;2023-07-31T09:13:29;8.90;;;2.47;;
54123;SDS011;55741;53.252;5.788;2023-07-31T09:15:56;5.95;;;2.00;;
54123;SDS011;55741;53.252;5.788;2023-07-31T09:18:22;4.78;;;1.88;;
54123;SDS011;55741;53.252;5.788;2023-07-31T09:21:01;3.50;;;1.70;;
54123;SDS011;55741;53.252;5.788;2023-07-31T09:23:39;3.20;;;1.38;;
54123;SDS011;55741;53.252;5.788;2023-07-31T09:26:07;4.78;;;1.85;;
54123;SDS011;55741;53.252;5.788;2023-07-31T09:28:32;3.85;;;1.50;;
54123;SDS011;55741;53.252;5.788;2023-07-31T09:30:58;4.32;;;1.50;;
54123;SDS011;55741;53.252;5.788;2023-07-31T09:33:24;2.45;;;1.33;;
54123;SDS011;55741;53.252;5.788;2023-07-31T09:35:50;2.67;;;1.20;;
54123;SDS011;55741;53.252;5.788;2023-07-31T09:38:16;3.92;;;1.20;;
54123;SDS011;55741;53.252;5.788;2023-07-31T09:40:43;2.67;;;1.25;;
54123;SDS011;55741;53.252;5.788;2023-07-31T09:43:10;4.60;;;1.55;;
54123;SDS011;55741;53.252;5.788;2023-07-31T09:45:39;3.53;;;1.30;;
54123;SDS011;55741;53.252;5.788;2023-07-31T09:48:07;2.40;;;1.25;;
54123;SDS011;55741;53.252;5.788;2023-07-31T09:50:36;4.45;;;1.42;;
54123;SDS011;55741;53.252;5.788;2023-07-31T09:53:03;2.80;;;1.20;;
54123;SDS011;55741;53.252;5.788;2023-07-31T09:55:30;3.28;;;1.20;;
54123;SDS011;55741;53.252;5.788;2023-07-31T09:57:57;3.00;;;1.23;;
54123;SDS011;55741;53.252;5.788;2023-07-31T10:00:24;2.38;;;1.30;;
54123;SDS011;55741;53.252;5.788;2023-07-31T10:02:53;2.40;;;1.17;;
54123;SDS011;55741;53.252;5.788;2023-07-31T10:05:23;3.90;;;1.20;;
54123;SDS011;55741;53.252;5.788;2023-07-31T10:07:53;4.10;;;1.10;;
54123;SDS011;55741;53.252;5.788;2023-07-31T10:10:21;3.33;;;1.05;;
54123;SDS011;55741;53.252;5.788;2023-07-31T10:12:48;5.07;;;1.45;;
54123;SDS011;55741;53.252;5.788;2023-07-31T10:15:15;7.55;;;2.13;;
54123;SDS011;55741;53.252;5.788;2023-07-31T10:17:41;3.58;;;1.70;;
54123;SDS011;55741;53.252;5.788;2023-07-31T10:20:07;9.35;;;1.80;;
54123;SDS011;55741;53.252;5.788;2023-07-31T10:22:35;4.85;;;1.80;;
54123;SDS011;55741;53.252;5.788;2023-07-31T10:25:01;6.00;;;1.90;;
54123;SDS011;55741;53.252;5.788;2023-07-31T10:27:28;8.15;;;2.20;;
54123;SDS011;55741;53.252;5.788;2023-07-31T10:29:55;7.10;;;1.90;;
54123;SDS011;55741;53.252;5.788;2023-07-31T10:32:22;6.00;;;2.10;;
54123;SDS011;55741;53.252;5.788;2023-07-31T10:34:50;5.72;;;2.15;;
54123;SDS011;55741;53.252;5.788;2023-07-31T10:37:23;6.90;;;2.40;;
54123;SDS011;55741;53.252;5.788;2023-07-31T10:40:05;14.37;;;2.70;;
54123;SDS011;55741;53.252;5.788;2023-07-31T10:42:48;9.55;;;3.35;;
54123;SDS011;55741;53.252;5.788;2023-07-31T10:47:57;9.35;;;2.80;;
54123;SDS011;55741;53.252;5.788;2023-07-31T10:50:28;9.00;;;2.47;;
54123;SDS011;55741;53.252;5.788;2023-07-31T10:52:59;7.10;;;2.42;;
54123;SDS011;55741;53.252;5.788;2023-07-31T10:58:06;8.00;;;2.70;;
54123;SDS011;55741;53.252;5.788;2023-07-31T11:00:40;6.45;;;1.88;;
54123;SDS011;55741;53.252;5.788;2023-07-31T11:03:08;6.57;;;2.00;;
54123;SDS011;55741;53.252;5.788;2023-07-31T11:05:41;6.82;;;2.15;;
54123;SDS011;55741;53.252;5.788;2023-07-31T11:08:17;6.28;;;2.00;;
54123;SDS011;55741;53.252;5.788;2023-07-31T11:10:46;7.78;;;2.22;;
54123;SDS011;55741;53.252;5.788;2023-07-31T11:13:13;8.48;;;2.30;;
54123;SDS011;55741;53.252;5.788;2023-07-31T11:15:39;7.13;;;2.30;;
54123;SDS011;55741;53.252;5.788;2023-07-31T11:18:05;11.82;;;2.83;;
54123;SDS011;55741;53.252;5.788;2023-07-31T11:20:33;7.20;;;2.15;;
54123;SDS011;55741;53.252;5.788;2023-07-31T11:23:05;6.32;;;2.38;;
54123;SDS011;55741;53.252;5.788;2023-07-31T11:25:33;6.25;;;2.30;;
54123;SDS011;55741;53.252;5.788;2023-07-31T11:28:06;10.20;;;3.28;;
54123;SDS011;55741;53.252;5.788;2023-07-31T11:30:33;11.52;;;2.90;;
54123;SDS011;55741;53.252;5.788;2023-07-31T11:33:01;8.57;;;2.38;;
54123;SDS011;55741;53.252;5.788;2023-07-31T11:35:49;6.70;;;2.58;;
54123;SDS011;55741;53.252;5.788;2023-07-31T11:38:21;9.23;;;2.05;;
54123;SDS011;55741;53.252;5.788;2023-07-31T11:40:49;7.93;;;1.95;;
54123;SDS011;55741;53.252;5.788;2023-07-31T11:43:15;6.13;;;2.53;;
54123;SDS011;55741;53.252;5.788;2023-07-31T11:45:47;5.45;;;2.20;;
54123;SDS011;55741;53.252;5.788;2023-07-31T11:48:33;6.75;;;1.98;;
54123;SDS011;55741;53.252;5.788;2023-07-31T11:51:04;5.53;;;2.10;;
54123;SDS011;55741;53.252;5.788;2023-07-31T11:53:41;4.80;;;1.73;;
54123;SDS011;55741;53.252;5.788;2023-07-31T11:56:08;7.40;;;2.40;;
54123;SDS011;55741;53.252;5.788;2023-07-31T11:58:37;8.02;;;2.47;;
54123;SDS011;55741;53.252;5.788;2023-07-31T12:01:04;13.98;;;3.35;;
54123;SDS011;55741;53.252;5.788;2023-07-31T12:03:31;9.65;;;2.70;;
54123;SDS011;55741;53.252;5.788;2023-07-31T12:05:58;10.60;;;3.15;;
54123;SDS011;55741;53.252;5.788;2023-07-31T12:08:24;11.23;;;3.22;;
54123;SDS011;55741;53.252;5.788;2023-07-31T12:10:51;6.88;;;2.63;;
54123;SDS011;55741;53.252;5.788;2023-07-31T12:13:21;13.55;;;3.35;;
54123;SDS011;55741;53.252;5.788;2023-07-31T12:15:49;12.27;;;3.25;;
54123;SDS011;55741;53.252;5.788;2023-07-31T12:18:21;12.88;;;3.40;;
54123;SDS011;55741;53.252;5.788;2023-07-31T12:20:48;13.05;;;3.45;;
54123;SDS011;55741;53.252;5.788;2023-07-31T12:23:22;16.67;;;3.38;;
54123;SDS011;55741;53.252;5.788;2023-07-31T12:28:40;10.60;;;3.20;;
54123;SDS011;55741;53.252;5.788;2023-07-31T12:31:23;9.52;;;3.60;;
54123;SDS011;55741;53.252;5.788;2023-07-31T12:33:52;10.82;;;3.67;;
54123;SDS011;55741;53.252;5.788;2023-07-31T12:36:22;12.13;;;3.25;;
54123;SDS011;55741;53.252;5.788;2023-07-31T12:38:49;16.13;;;3.65;;
54123;SDS011;55741;53.252;5.788;2023-07-31T12:41:16;9.00;;;3.05;;
54123;SDS011;55741;53.252;5.788;2023-07-31T12:43:42;16.38;;;4.15;;
54123;SDS011;55741;53.252;5.788;2023-07-31T12:46:09;11.10;;;3.17;;
54123;SDS011;55741;53.252;5.788;2023-07-31T12:48:35;10.90;;;3.78;;
54123;SDS011;55741;53.252;5.788;2023-07-31T12:51:05;14.57;;;3.70;;
54123;SDS011;55741;53.252;5.788;2023-07-31T12:53:32;12.48;;;3.47;;
54123;SDS011;55741;53.252;5.788;2023-07-31T12:55:59;11.15;;;3.60;;
54123;SDS011;55741;53.252;5.788;2023-07-31T12:58:26;13.23;;;3.78;;
54123;SDS011;55741;53.252;5.788;2023-07-31T13:00:51;13.75;;;3.85;;
54123;SDS011;55741;53.252;5.788;2023-07-31T13:03:17;15.02;;;3.67;;
54123;SDS011;55741;53.252;5.788;2023-07-31T13:05:43;16.30;;;4.30;;
54123;SDS011;55741;53.252;5.788;2023-07-31T13:08:09;15.27;;;3.60;;
54123;SDS011;55741;53.252;5.788;2023-07-31T13:10:35;15.73;;;3.55;;
54123;SDS011;55741;53.252;5.788;2023-07-31T13:13:00;14.00;;;4.50;;
54123;SDS011;55741;53.252;5.788;2023-07-31T13:15:26;15.25;;;4.43;;
54123;SDS011;55741;53.252;5.788;2023-07-31T13:17:52;11.20;;;3.40;;
54123;SDS011;55741;53.252;5.788;2023-07-31T13:20:18;12.07;;;3.70;;
54123;SDS011;55741;53.252;5.788;2023-07-31T13:22:44;12.20;;;4.30;;
54123;SDS011;55741;53.252;5.788;2023-07-31T13:25:10;14.65;;;3.78;;
54123;SDS011;55741;53.252;5.788;2023-07-31T13:27:35;10.77;;;3.30;;
54123;SDS011;55741;53.252;5.788;2023-07-31T13:30:01;9.30;;;4.00;;
54123;SDS011;55741;53.252;5.788;2023-07-31T13:32:27;11.68;;;4.13;;
54123;SDS011;55741;53.252;5.788;2023-07-31T13:34:54;12.77;;;4.00;;
54123;SDS011;55741;53.252;5.788;2023-07-31T13:37:20;13.20;;;3.47;;
54123;SDS011;55741;53.252;5.788;2023-07-31T13:39:46;8.70;;;3.30;;
54123;SDS011;55741;53.252;5.788;2023-07-31T13:42:12;10.68;;;3.42;;
54123;SDS011;55741;53.252;5.788;2023-07-31T13:44:38;10.10;;;3.85;;
54123;SDS011;55741;53.252;5.788;2023-07-31T13:47:04;9.50;;;3.75;;
54123;SDS011;55741;53.252;5.788;2023-07-31T13:49:30;8.98;;;3.33;;
54123;SDS011;55741;53.252;5.788;2023-07-31T13:51:57;12.85;;;3.83;;
54123;SDS011;55741;53.252;5.788;2023-07-31T13:54:23;12.40;;;3.90;;
54123;SDS011;55741;53.252;5.788;2023-07-31T13:56:52;11.52;;;4.28;;
54123;SDS011;55741;53.252;5.788;2023-07-31T13:59:18;14.88;;;4.40;;
54123;SDS011;55741;53.252;5.788;2023-07-31T14:01:44;12.45;;;3.92;;
54123;SDS011;55741;53.252;5.788;2023-07-31T14:04:11;14.10;;;4.57;;
54123;SDS011;55741;53.252;5.788;2023-07-31T14:06:37;14.98;;;4.43;;
54123;SDS011;55741;53.252;5.788;2023-07-31T14:09:03;15.63;;;4.45;;
54123;SDS011;55741;53.252;5.788;2023-07-31T14:11:30;16.50;;;4.35;;
54123;SDS011;55741;53.252;5.788;2023-07-31T14:13:56;22.15;;;4.70;;
54123;SDS011;55741;53.252;5.788;2023-07-31T14:16:22;21.40;;;6.25;;
54123;SDS011;55741;53.252;5.788;2023-07-31T14:18:48;18.08;;;5.28;;
54123;SDS011;55741;53.252;5.788;2023-07-31T14:21:15;16.67;;;5.40;;
54123;SDS011;55741;53.252;5.788;2023-07-31T14:23:41;16.20;;;4.43;;
54123;SDS011;55741;53.252;5.788;2023-07-31T14:26:07;12.30;;;4.57;;
54123;SDS011;55741;53.252;5.788;2023-07-31T14:28:33;14.63;;;4.38;;
54123;SDS011;55741;53.252;5.788;2023-07-31T14:30:59;13.65;;;3.85;;
54123;SDS011;55741;53.252;5.788;2023-07-31T14:33:25;14.23;;;4.47;;
54123;SDS011;55741;53.252;5.788;2023-07-31T14:35:51;16.67;;;4.82;;
54123;SDS011;55741;53.252;5.788;2023-07-31T14:38:17;16.70;;;4.50;;
54123;SDS011;55741;53.252;5.788;2023-07-31T14:40:43;18.98;;;4.57;;
54123;SDS011;55741;53.252;5.788;2023-07-31T14:43:09;15.25;;;4.10;;
54123;SDS011;55741;53.252;5.788;2023-07-31T14:45:35;15.77;;;4.22;;
54123;SDS011;55741;53.252;5.788;2023-07-31T14:48:00;16.00;;;4.70;;
54123;SDS011;55741;53.252;5.788;2023-07-31T14:50:26;15.32;;;4.40;;
54123;SDS011;55741;53.252;5.788;2023-07-31T14:52:52;12.02;;;3.60;;
54123;SDS011;55741;53.252;5.788;2023-07-31T14:55:18;13.43;;;4.03;;
54123;SDS011;55741;53.252;5.788;2023-07-31T14:57:46;14.57;;;4.25;;